sensor_id;sensor_type;location;lat;lon;timestamp;temperature;humidity
69747;DHT22;57018;50.278;19.134;2023-03-16T00:00:34;0.60;94.20
69747;DHT22;57018;50.278;19.134;2023-03-16T00:03:04;0.60;95.00
69747;DHT22;57018;50.278;19.134;2023-03-16T00:05:34;0.50;95.20
69747;DHT22;57018;50.278;19.134;2023-03-16T00:08:04;0.50;95.10
69747;DHT22;57018;50.278;19.134;2023-03-16T00:10:34;0.40;95.50
69747;DHT22;57018;50.278;19.134;2023-03-16T00:13:04;0.30;95.70
69747;DHT22;57018;50.278;19.134;2023-03-16T00:15:34;0.30;96.00
69747;DHT22;57018;50.278;19.134;2023-03-16T00:18:04;0.30;96.70
69747;DHT22;57018;50.278;19.134;2023-03-16T00:23:02;0.30;97.20
69747;DHT22;57018;50.278;19.134;2023-03-16T00:25:32;0.30;97.20
69747;DHT22;57018;50.278;19.134;2023-03-16T00:28:02;0.20;97.50
69747;DHT22;57018;50.278;19.134;2023-03-16T00:30:32;0.10;98.00
69747;DHT22;57018;50.278;19.134;2023-03-16T00:33:01;0.10;98.00
69747;DHT22;57018;50.278;19.134;2023-03-16T00:35:32;0.20;97.80
69747;DHT22;57018;50.278;19.134;2023-03-16T00:38:02;0.20;98.10
69747;DHT22;57018;50.278;19.134;2023-03-16T00:40:32;0.10;98.40
69747;DHT22;57018;50.278;19.134;2023-03-16T00:43:02;0.20;98.80
69747;DHT22;57018;50.278;19.134;2023-03-16T00:45:32;0.10;99.30
69747;DHT22;57018;50.278;19.134;2023-03-16T00:48:04;0.00;98.80
69747;DHT22;57018;50.278;19.134;2023-03-16T00:50:34;0.10;99.30
69747;DHT22;57018;50.278;19.134;2023-03-16T00:53:04;0.00;99.30
69747;DHT22;57018;50.278;19.134;2023-03-16T00:55:34;0.00;99.20
69747;DHT22;57018;50.278;19.134;2023-03-16T00:58:04;0.00;99.20
69747;DHT22;57018;50.278;19.134;2023-03-16T01:00:34;0.00;99.70
69747;DHT22;57018;50.278;19.134;2023-03-16T01:03:04;0.00;99.70
69747;DHT22;57018;50.278;19.134;2023-03-16T01:05:33;-0.10;99.30
69747;DHT22;57018;50.278;19.134;2023-03-16T01:08:07;-0.10;99.90
69747;DHT22;57018;50.278;19.134;2023-03-16T01:10:39;-0.10;99.90
69747;DHT22;57018;50.278;19.134;2023-03-16T01:13:09;-0.20;99.90
69747;DHT22;57018;50.278;19.134;2023-03-16T01:15:40;-0.20;99.90
69747;DHT22;57018;50.278;19.134;2023-03-16T01:18:13;-0.20;99.90
69747;DHT22;57018;50.278;19.134;2023-03-16T01:20:43;-0.10;99.90
69747;DHT22;57018;50.278;19.134;2023-03-16T01:23:18;-0.20;99.90
69747;DHT22;57018;50.278;19.134;2023-03-16T01:25:48;-0.20;99.90
69747;DHT22;57018;50.278;19.134;2023-03-16T01:28:22;-0.30;99.90
69747;DHT22;57018;50.278;19.134;2023-03-16T01:30:57;-0.30;99.90
69747;DHT22;57018;50.278;19.134;2023-03-16T01:33:28;-0.30;99.90
69747;DHT22;57018;50.278;19.134;2023-03-16T01:36:00;-0.40;99.90
69747;DHT22;57018;50.278;19.134;2023-03-16T01:38:30;-0.40;99.90
69747;DHT22;57018;50.278;19.134;2023-03-16T01:41:01;-0.40;99.90
69747;DHT22;57018;50.278;19.134;2023-03-16T01:43:32;-0.50;99.90
69747;DHT22;57018;50.278;19.134;2023-03-16T01:46:23;-0.40;99.90
69747;DHT22;57018;50.278;19.134;2023-03-16T01:49:05;-0.30;99.90
69747;DHT22;57018;50.278;19.134;2023-03-16T01:51:41;-0.50;99.90
69747;DHT22;57018;50.278;19.134;2023-03-16T01:54:19;-0.50;99.90
69747;DHT22;57018;50.278;19.134;2023-03-16T01:56:55;-0.60;99.90
69747;DHT22;57018;50.278;19.134;2023-03-16T01:59:29;-0.50;99.90
69747;DHT22;57018;50.278;19.134;2023-03-16T02:02:01;-0.60;99.90
69747;DHT22;57018;50.278;19.134;2023-03-16T02:04:45;-0.60;99.90
69747;DHT22;57018;50.278;19.134;2023-03-16T02:07:18;-0.70;99.90
69747;DHT22;57018;50.278;19.134;2023-03-16T02:09:50;-0.70;99.90
69747;DHT22;57018;50.278;19.134;2023-03-16T02:12:21;-0.70;99.90
69747;DHT22;57018;50.278;19.134;2023-03-16T02:14:52;-0.80;99.90
69747;DHT22;57018;50.278;19.134;2023-03-16T02:17:24;-0.80;99.90
69747;DHT22;57018;50.278;19.134;2023-03-16T02:20:04;-0.70;99.90
69747;DHT22;57018;50.278;19.134;2023-03-16T02:22:38;-0.80;99.90
69747;DHT22;57018;50.278;19.134;2023-03-16T02:25:10;-0.80;99.90
69747;DHT22;57018;50.278;19.134;2023-03-16T02:27:45;-0.90;99.90
69747;DHT22;57018;50.278;19.134;2023-03-16T02:30:19;-0.90;99.90
69747;DHT22;57018;50.278;19.134;2023-03-16T02:32:50;-1.00;99.90
69747;DHT22;57018;50.278;19.134;2023-03-16T02:35:21;-1.10;99.90
69747;DHT22;57018;50.278;19.134;2023-03-16T02:37:51;-1.20;99.90
69747;DHT22;57018;50.278;19.134;2023-03-16T02:40:24;-1.20;99.90
69747;DHT22;57018;50.278;19.134;2023-03-16T02:42:57;-1.20;99.90
69747;DHT22;57018;50.278;19.134;2023-03-16T02:45:37;-1.10;99.90
69747;DHT22;57018;50.278;19.134;2023-03-16T02:48:11;-1.10;99.90
69747;DHT22;57018;50.278;19.134;2023-03-16T02:50:48;-1.10;99.90
69747;DHT22;57018;50.278;19.134;2023-03-16T02:53:18;-1.20;99.90
69747;DHT22;57018;50.278;19.134;2023-03-16T02:55:48;-1.10;99.90
69747;DHT22;57018;50.278;19.134;2023-03-16T02:58:21;-1.00;99.90
69747;DHT22;57018;50.278;19.134;2023-03-16T03:00:51;-1.00;99.90
69747;DHT22;57018;50.278;19.134;2023-03-16T03:03:21;-1.00;99.90
69747;DHT22;57018;50.278;19.134;2023-03-16T03:05:51;-1.00;99.90
69747;DHT22;57018;50.278;19.134;2023-03-16T03:08:20;-1.00;99.90
69747;DHT22;57018;50.278;19.134;2023-03-16T03:10:50;-1.00;99.90
69747;DHT22;57018;50.278;19.134;2023-03-16T03:13:20;-1.10;99.90
69747;DHT22;57018;50.278;19.134;2023-03-16T03:15:51;-1.20;99.90
69747;DHT22;57018;50.278;19.134;2023-03-16T03:18:23;-1.10;99.90
69747;DHT22;57018;50.278;19.134;2023-03-16T03:20:53;-1.00;99.90
69747;DHT22;57018;50.278;19.134;2023-03-16T03:23:23;-1.10;99.90
69747;DHT22;57018;50.278;19.134;2023-03-16T03:25:57;-1.00;99.90
69747;DHT22;57018;50.278;19.134;2023-03-16T03:28:27;-1.00;99.90
69747;DHT22;57018;50.278;19.134;2023-03-16T03:30:57;-1.00;99.90
69747;DHT22;57018;50.278;19.134;2023-03-16T03:33:27;-1.00;99.90
69747;DHT22;57018;50.278;19.134;2023-03-16T03:35:58;-1.00;99.90
69747;DHT22;57018;50.278;19.134;2023-03-16T03:38:29;-1.00;99.90
69747;DHT22;57018;50.278;19.134;2023-03-16T03:40:59;-1.10;99.90
69747;DHT22;57018;50.278;19.134;2023-03-16T03:43:29;-1.10;99.90
69747;DHT22;57018;50.278;19.134;2023-03-16T03:45:59;-1.30;99.90
69747;DHT22;57018;50.278;19.134;2023-03-16T03:48:29;-1.20;99.90
69747;DHT22;57018;50.278;19.134;2023-03-16T03:50:59;-1.20;99.90
69747;DHT22;57018;50.278;19.134;2023-03-16T03:53:29;-1.20;99.90
69747;DHT22;57018;50.278;19.134;2023-03-16T03:55:59;-1.20;99.90
69747;DHT22;57018;50.278;19.134;2023-03-16T03:58:28;-1.10;99.90
69747;DHT22;57018;50.278;19.134;2023-03-16T04:00:58;-1.20;99.90
69747;DHT22;57018;50.278;19.134;2023-03-16T04:03:28;-1.10;99.90
69747;DHT22;57018;50.278;19.134;2023-03-16T04:05:58;-1.10;99.90
69747;DHT22;57018;50.278;19.134;2023-03-16T04:08:28;-1.10;99.90
69747;DHT22;57018;50.278;19.134;2023-03-16T04:10:58;-1.10;99.90
69747;DHT22;57018;50.278;19.134;2023-03-16T04:13:28;-1.10;99.90
69747;DHT22;57018;50.278;19.134;2023-03-16T04:15:59;-1.10;99.90
69747;DHT22;57018;50.278;19.134;2023-03-16T04:18:30;-1.10;99.90
69747;DHT22;57018;50.278;19.134;2023-03-16T04:21:07;-1.10;99.90
69747;DHT22;57018;50.278;19.134;2023-03-16T04:23:41;-1.00;99.90
69747;DHT22;57018;50.278;19.134;2023-03-16T04:26:11;-1.00;99.90
69747;DHT22;57018;50.278;19.134;2023-03-16T04:28:41;-1.10;99.90
69747;DHT22;57018;50.278;19.134;2023-03-16T04:31:12;-1.00;99.90
69747;DHT22;57018;50.278;19.134;2023-03-16T04:33:42;-1.00;99.90
69747;DHT22;57018;50.278;19.134;2023-03-16T04:36:12;-1.00;99.90
69747;DHT22;57018;50.278;19.134;2023-03-16T04:38:42;-1.00;99.90
69747;DHT22;57018;50.278;19.134;2023-03-16T04:41:12;-1.10;99.90
69747;DHT22;57018;50.278;19.134;2023-03-16T04:43:42;-1.10;99.90
69747;DHT22;57018;50.278;19.134;2023-03-16T04:46:12;-1.20;99.90
69747;DHT22;57018;50.278;19.134;2023-03-16T04:48:42;-1.30;99.90
69747;DHT22;57018;50.278;19.134;2023-03-16T04:51:12;-1.30;99.90
69747;DHT22;57018;50.278;19.134;2023-03-16T04:53:42;-1.40;99.90
69747;DHT22;57018;50.278;19.134;2023-03-16T04:56:13;-1.30;99.90
69747;DHT22;57018;50.278;19.134;2023-03-16T04:58:47;-1.50;99.90
69747;DHT22;57018;50.278;19.134;2023-03-16T05:01:16;-1.50;99.90
69747;DHT22;57018;50.278;19.134;2023-03-16T05:03:46;-1.50;99.90
69747;DHT22;57018;50.278;19.134;2023-03-16T05:06:17;-1.50;99.90
69747;DHT22;57018;50.278;19.134;2023-03-16T05:08:47;-1.40;99.90
69747;DHT22;57018;50.278;19.134;2023-03-16T05:11:17;-1.40;99.90
69747;DHT22;57018;50.278;19.134;2023-03-16T05:13:47;-1.40;99.90
69747;DHT22;57018;50.278;19.134;2023-03-16T05:16:16;-1.50;99.90
69747;DHT22;57018;50.278;19.134;2023-03-16T05:18:46;-1.30;99.90
69747;DHT22;57018;50.278;19.134;2023-03-16T05:21:16;-1.30;99.90
69747;DHT22;57018;50.278;19.134;2023-03-16T05:23:46;-1.30;99.90
69747;DHT22;57018;50.278;19.134;2023-03-16T05:26:16;-1.10;99.90
69747;DHT22;57018;50.278;19.134;2023-03-16T05:28:46;-1.10;99.90
69747;DHT22;57018;50.278;19.134;2023-03-16T05:31:16;-0.90;99.90
69747;DHT22;57018;50.278;19.134;2023-03-16T05:33:46;-0.80;99.90
69747;DHT22;57018;50.278;19.134;2023-03-16T05:36:16;-0.80;99.90
69747;DHT22;57018;50.278;19.134;2023-03-16T05:38:46;-0.70;99.90
69747;DHT22;57018;50.278;19.134;2023-03-16T05:41:16;-0.50;99.90
69747;DHT22;57018;50.278;19.134;2023-03-16T05:43:48;-0.50;99.90
69747;DHT22;57018;50.278;19.134;2023-03-16T05:46:18;-0.50;99.90
69747;DHT22;57018;50.278;19.134;2023-03-16T05:48:48;-0.30;99.90
69747;DHT22;57018;50.278;19.134;2023-03-16T05:51:18;-0.20;99.90
69747;DHT22;57018;50.278;19.134;2023-03-16T05:53:48;-0.10;99.90
69747;DHT22;57018;50.278;19.134;2023-03-16T05:56:18;0.00;99.90
69747;DHT22;57018;50.278;19.134;2023-03-16T05:58:48;0.00;99.90
69747;DHT22;57018;50.278;19.134;2023-03-16T06:01:18;0.20;99.90
69747;DHT22;57018;50.278;19.134;2023-03-16T06:03:49;0.20;99.90
69747;DHT22;57018;50.278;19.134;2023-03-16T06:06:20;0.40;99.90
69747;DHT22;57018;50.278;19.134;2023-03-16T06:08:51;0.50;99.90
69747;DHT22;57018;50.278;19.134;2023-03-16T06:11:21;0.70;99.90
69747;DHT22;57018;50.278;19.134;2023-03-16T06:13:51;0.70;99.90
69747;DHT22;57018;50.278;19.134;2023-03-16T06:16:21;0.80;99.90
69747;DHT22;57018;50.278;19.134;2023-03-16T06:18:51;1.10;99.90
69747;DHT22;57018;50.278;19.134;2023-03-16T06:21:20;1.10;99.90
69747;DHT22;57018;50.278;19.134;2023-03-16T06:23:50;1.50;99.90
69747;DHT22;57018;50.278;19.134;2023-03-16T06:26:20;1.50;99.90
69747;DHT22;57018;50.278;19.134;2023-03-16T06:28:50;1.60;99.90
69747;DHT22;57018;50.278;19.134;2023-03-16T06:31:20;1.60;99.90
69747;DHT22;57018;50.278;19.134;2023-03-16T06:33:50;1.50;99.90
69747;DHT22;57018;50.278;19.134;2023-03-16T06:36:19;1.60;99.80
69747;DHT22;57018;50.278;19.134;2023-03-16T06:38:49;1.60;99.30
69747;DHT22;57018;50.278;19.134;2023-03-16T06:41:20;1.60;98.90
69747;DHT22;57018;50.278;19.134;2023-03-16T06:43:50;1.50;97.50
69747;DHT22;57018;50.278;19.134;2023-03-16T06:46:19;1.70;97.80
69747;DHT22;57018;50.278;19.134;2023-03-16T06:48:49;1.80;97.80
69747;DHT22;57018;50.278;19.134;2023-03-16T06:51:19;1.80;96.30
69747;DHT22;57018;50.278;19.134;2023-03-16T06:53:49;1.80;97.10
69747;DHT22;57018;50.278;19.134;2023-03-16T06:56:19;1.80;96.10
69747;DHT22;57018;50.278;19.134;2023-03-16T06:58:49;1.70;95.90
69747;DHT22;57018;50.278;19.134;2023-03-16T07:01:17;1.60;95.50
69747;DHT22;57018;50.278;19.134;2023-03-16T07:03:47;1.70;95.90
69747;DHT22;57018;50.278;19.134;2023-03-16T07:06:17;1.60;95.30
69747;DHT22;57018;50.278;19.134;2023-03-16T07:08:47;1.60;95.20
69747;DHT22;57018;50.278;19.134;2023-03-16T07:11:17;1.60;95.00
69747;DHT22;57018;50.278;19.134;2023-03-16T07:13:47;1.60;95.50
69747;DHT22;57018;50.278;19.134;2023-03-16T07:16:17;1.80;95.70
69747;DHT22;57018;50.278;19.134;2023-03-16T07:18:47;2.00;95.00
69747;DHT22;57018;50.278;19.134;2023-03-16T07:21:17;1.90;94.80
69747;DHT22;57018;50.278;19.134;2023-03-16T07:23:47;2.10;93.90
69747;DHT22;57018;50.278;19.134;2023-03-16T07:26:17;2.10;94.20
69747;DHT22;57018;50.278;19.134;2023-03-16T07:28:47;2.30;93.60
69747;DHT22;57018;50.278;19.134;2023-03-16T07:31:17;2.20;93.50
69747;DHT22;57018;50.278;19.134;2023-03-16T07:33:47;2.50;93.00
69747;DHT22;57018;50.278;19.134;2023-03-16T07:36:17;2.90;91.50
69747;DHT22;57018;50.278;19.134;2023-03-16T07:38:46;3.30;90.10
69747;DHT22;57018;50.278;19.134;2023-03-16T07:41:16;3.40;88.90
69747;DHT22;57018;50.278;19.134;2023-03-16T07:43:44;3.80;88.40
69747;DHT22;57018;50.278;19.134;2023-03-16T07:46:14;3.80;86.10
69747;DHT22;57018;50.278;19.134;2023-03-16T07:48:45;4.30;85.70
69747;DHT22;57018;50.278;19.134;2023-03-16T07:51:15;4.50;83.60
69747;DHT22;57018;50.278;19.134;2023-03-16T07:53:46;4.80;82.30
69747;DHT22;57018;50.278;19.134;2023-03-16T07:56:21;4.90;82.00
69747;DHT22;57018;50.278;19.134;2023-03-16T07:58:52;4.90;81.90
69747;DHT22;57018;50.278;19.134;2023-03-16T08:01:23;4.70;81.20
69747;DHT22;57018;50.278;19.134;2023-03-16T08:03:56;4.60;81.90
69747;DHT22;57018;50.278;19.134;2023-03-16T08:06:27;4.70;81.70
69747;DHT22;57018;50.278;19.134;2023-03-16T08:08:59;4.90;81.40
69747;DHT22;57018;50.278;19.134;2023-03-16T08:11:31;4.90;81.00
69747;DHT22;57018;50.278;19.134;2023-03-16T08:14:01;5.20;81.40
69747;DHT22;57018;50.278;19.134;2023-03-16T08:16:36;5.40;81.20
69747;DHT22;57018;50.278;19.134;2023-03-16T08:19:06;5.90;79.60
69747;DHT22;57018;50.278;19.134;2023-03-16T08:21:36;6.60;78.20
69747;DHT22;57018;50.278;19.134;2023-03-16T08:24:08;7.10;75.20
69747;DHT22;57018;50.278;19.134;2023-03-16T08:26:40;7.50;74.20
69747;DHT22;57018;50.278;19.134;2023-03-16T08:29:10;7.50;70.00
69747;DHT22;57018;50.278;19.134;2023-03-16T08:31:42;7.60;70.60
69747;DHT22;57018;50.278;19.134;2023-03-16T08:34:12;7.70;67.80
69747;DHT22;57018;50.278;19.134;2023-03-16T08:36:43;7.30;69.00
69747;DHT22;57018;50.278;19.134;2023-03-16T08:39:13;7.10;68.00
69747;DHT22;57018;50.278;19.134;2023-03-16T08:41:44;6.50;67.80
69747;DHT22;57018;50.278;19.134;2023-03-16T08:44:18;6.50;68.90
69747;DHT22;57018;50.278;19.134;2023-03-16T08:46:51;6.00;70.80
69747;DHT22;57018;50.278;19.134;2023-03-16T08:49:21;5.70;72.80
69747;DHT22;57018;50.278;19.134;2023-03-16T08:51:54;5.50;73.80
69747;DHT22;57018;50.278;19.134;2023-03-16T08:54:27;5.20;75.00
69747;DHT22;57018;50.278;19.134;2023-03-16T08:56:58;5.20;75.70
69747;DHT22;57018;50.278;19.134;2023-03-16T08:59:28;5.00;76.30
69747;DHT22;57018;50.278;19.134;2023-03-16T09:01:58;4.70;77.50
69747;DHT22;57018;50.278;19.134;2023-03-16T09:04:29;4.70;77.90
69747;DHT22;57018;50.278;19.134;2023-03-16T09:07:00;4.70;77.60
69747;DHT22;57018;50.278;19.134;2023-03-16T09:09:31;4.70;78.00
69747;DHT22;57018;50.278;19.134;2023-03-16T09:12:02;5.00;77.50
69747;DHT22;57018;50.278;19.134;2023-03-16T09:14:33;5.50;77.30
69747;DHT22;57018;50.278;19.134;2023-03-16T09:17:06;5.80;71.30
69747;DHT22;57018;50.278;19.134;2023-03-16T09:19:36;6.30;72.20
69747;DHT22;57018;50.278;19.134;2023-03-16T09:22:06;6.80;69.90
69747;DHT22;57018;50.278;19.134;2023-03-16T09:24:41;6.90;68.60
69747;DHT22;57018;50.278;19.134;2023-03-16T09:27:11;6.90;68.30
69747;DHT22;57018;50.278;19.134;2023-03-16T09:29:41;6.80;67.60
69747;DHT22;57018;50.278;19.134;2023-03-16T09:32:11;6.70;68.00
69747;DHT22;57018;50.278;19.134;2023-03-16T09:34:41;6.60;67.30
69747;DHT22;57018;50.278;19.134;2023-03-16T09:37:12;6.10;68.50
69747;DHT22;57018;50.278;19.134;2023-03-16T09:39:43;6.20;69.50
69747;DHT22;57018;50.278;19.134;2023-03-16T09:42:18;6.40;69.90
69747;DHT22;57018;50.278;19.134;2023-03-16T09:44:58;6.40;70.20
69747;DHT22;57018;50.278;19.134;2023-03-16T09:47:34;6.70;68.40
69747;DHT22;57018;50.278;19.134;2023-03-16T09:50:12;6.90;66.60
69747;DHT22;57018;50.278;19.134;2023-03-16T09:52:54;7.40;66.00
69747;DHT22;57018;50.278;19.134;2023-03-16T09:55:32;7.80;64.30
69747;DHT22;57018;50.278;19.134;2023-03-16T09:58:09;7.70;61.70
69747;DHT22;57018;50.278;19.134;2023-03-16T10:00:48;7.80;61.40
69747;DHT22;57018;50.278;19.134;2023-03-16T10:03:33;7.80;59.30
69747;DHT22;57018;50.278;19.134;2023-03-16T10:06:10;7.80;59.70
69747;DHT22;57018;50.278;19.134;2023-03-16T10:08:44;7.80;59.70
69747;DHT22;57018;50.278;19.134;2023-03-16T10:11:25;7.70;59.10
69747;DHT22;57018;50.278;19.134;2023-03-16T10:14:01;7.50;59.60
69747;DHT22;57018;50.278;19.134;2023-03-16T10:16:39;7.60;59.60
69747;DHT22;57018;50.278;19.134;2023-03-16T10:19:15;7.60;60.70
69747;DHT22;57018;50.278;19.134;2023-03-16T10:21:45;7.30;60.10
69747;DHT22;57018;50.278;19.134;2023-03-16T10:24:26;7.00;59.10
69747;DHT22;57018;50.278;19.134;2023-03-16T10:27:04;6.90;60.40
69747;DHT22;57018;50.278;19.134;2023-03-16T10:29:36;6.90;60.30
69747;DHT22;57018;50.278;19.134;2023-03-16T10:32:13;6.60;61.50
69747;DHT22;57018;50.278;19.134;2023-03-16T10:34:46;6.60;62.40
69747;DHT22;57018;50.278;19.134;2023-03-16T10:37:19;6.70;62.10
69747;DHT22;57018;50.278;19.134;2023-03-16T10:39:57;6.70;61.50
69747;DHT22;57018;50.278;19.134;2023-03-16T10:42:29;6.90;61.10
69747;DHT22;57018;50.278;19.134;2023-03-16T10:45:03;6.50;58.60
69747;DHT22;57018;50.278;19.134;2023-03-16T10:47:35;6.60;58.50
69747;DHT22;57018;50.278;19.134;2023-03-16T10:50:21;6.50;59.50
69747;DHT22;57018;50.278;19.134;2023-03-16T10:52:54;6.90;59.70
69747;DHT22;57018;50.278;19.134;2023-03-16T10:55:28;7.30;59.80
69747;DHT22;57018;50.278;19.134;2023-03-16T10:57:59;7.40;59.30
69747;DHT22;57018;50.278;19.134;2023-03-16T11:00:40;7.50;57.30
69747;DHT22;57018;50.278;19.134;2023-03-16T11:03:18;7.10;56.90
69747;DHT22;57018;50.278;19.134;2023-03-16T11:05:57;7.00;57.90
69747;DHT22;57018;50.278;19.134;2023-03-16T11:08:31;6.80;58.40
69747;DHT22;57018;50.278;19.134;2023-03-16T11:11:09;7.00;58.10
69747;DHT22;57018;50.278;19.134;2023-03-16T11:13:45;7.60;57.90
69747;DHT22;57018;50.278;19.134;2023-03-16T11:16:26;8.10;58.20
69747;DHT22;57018;50.278;19.134;2023-03-16T11:19:01;8.90;55.30
69747;DHT22;57018;50.278;19.134;2023-03-16T11:21:39;9.20;53.80
69747;DHT22;57018;50.278;19.134;2023-03-16T11:24:17;9.50;53.00
69747;DHT22;57018;50.278;19.134;2023-03-16T11:26:54;9.30;53.20
69747;DHT22;57018;50.278;19.134;2023-03-16T11:29:30;9.00;53.20
69747;DHT22;57018;50.278;19.134;2023-03-16T11:32:05;8.30;50.10
69747;DHT22;57018;50.278;19.134;2023-03-16T11:34:39;7.90;51.80
69747;DHT22;57018;50.278;19.134;2023-03-16T11:37:19;7.70;53.70
69747;DHT22;57018;50.278;19.134;2023-03-16T11:39:57;7.90;54.40
69747;DHT22;57018;50.278;19.134;2023-03-16T11:42:38;8.40;53.00
69747;DHT22;57018;50.278;19.134;2023-03-16T11:45:20;8.70;51.20
69747;DHT22;57018;50.278;19.134;2023-03-16T11:50:46;8.90;50.60
69747;DHT22;57018;50.278;19.134;2023-03-16T11:53:26;8.60;51.70
69747;DHT22;57018;50.278;19.134;2023-03-16T11:56:05;8.10;52.10
69747;DHT22;57018;50.278;19.134;2023-03-16T11:58:49;8.00;52.40
69747;DHT22;57018;50.278;19.134;2023-03-16T12:01:32;7.90;53.50
69747;DHT22;57018;50.278;19.134;2023-03-16T12:04:18;7.90;53.90
69747;DHT22;57018;50.278;19.134;2023-03-16T12:07:10;8.20;53.20
69747;DHT22;57018;50.278;19.134;2023-03-16T12:09:54;8.50;51.40
69747;DHT22;57018;50.278;19.134;2023-03-16T12:12:41;8.60;50.20
69747;DHT22;57018;50.278;19.134;2023-03-16T12:15:22;8.30;50.20
69747;DHT22;57018;50.278;19.134;2023-03-16T12:17:55;8.40;51.30
69747;DHT22;57018;50.278;19.134;2023-03-16T12:20:28;8.40;52.20
69747;DHT22;57018;50.278;19.134;2023-03-16T12:23:07;8.30;52.10
69747;DHT22;57018;50.278;19.134;2023-03-16T12:25:40;8.10;51.60
69747;DHT22;57018;50.278;19.134;2023-03-16T12:28:12;8.10;50.50
69747;DHT22;57018;50.278;19.134;2023-03-16T12:30:51;8.10;49.80
69747;DHT22;57018;50.278;19.134;2023-03-16T12:33:31;8.00;47.70
69747;DHT22;57018;50.278;19.134;2023-03-16T12:36:06;7.90;48.40
69747;DHT22;57018;50.278;19.134;2023-03-16T12:38:46;7.50;49.40
69747;DHT22;57018;50.278;19.134;2023-03-16T12:41:30;7.40;50.80
69747;DHT22;57018;50.278;19.134;2023-03-16T12:44:10;7.30;51.80
69747;DHT22;57018;50.278;19.134;2023-03-16T12:46:50;7.40;52.30
69747;DHT22;57018;50.278;19.134;2023-03-16T12:49:24;7.40;52.40
69747;DHT22;57018;50.278;19.134;2023-03-16T12:52:01;7.60;52.70
69747;DHT22;57018;50.278;19.134;2023-03-16T12:54:31;7.90;52.80
69747;DHT22;57018;50.278;19.134;2023-03-16T12:57:03;7.90;51.70
69747;DHT22;57018;50.278;19.134;2023-03-16T12:59:38;8.20;51.40
69747;DHT22;57018;50.278;19.134;2023-03-16T13:02:14;8.20;50.10
69747;DHT22;57018;50.278;19.134;2023-03-16T13:04:47;8.20;49.60
69747;DHT22;57018;50.278;19.134;2023-03-16T13:07:21;8.40;50.30
69747;DHT22;57018;50.278;19.134;2023-03-16T13:09:55;8.60;49.70
69747;DHT22;57018;50.278;19.134;2023-03-16T13:12:28;8.60;49.00
69747;DHT22;57018;50.278;19.134;2023-03-16T13:15:00;8.60;49.20
69747;DHT22;57018;50.278;19.134;2023-03-16T13:17:31;8.70;50.20
69747;DHT22;57018;50.278;19.134;2023-03-16T13:20:05;8.80;49.70
69747;DHT22;57018;50.278;19.134;2023-03-16T13:22:45;8.90;48.40
69747;DHT22;57018;50.278;19.134;2023-03-16T13:25:21;8.80;46.70
69747;DHT22;57018;50.278;19.134;2023-03-16T13:27:55;8.80;47.80
69747;DHT22;57018;50.278;19.134;2023-03-16T13:30:29;8.80;48.30
69747;DHT22;57018;50.278;19.134;2023-03-16T13:33:06;9.00;48.60
69747;DHT22;57018;50.278;19.134;2023-03-16T13:35:37;9.10;48.80
69747;DHT22;57018;50.278;19.134;2023-03-16T13:38:14;8.80;48.40
69747;DHT22;57018;50.278;19.134;2023-03-16T13:40:48;9.00;48.10
69747;DHT22;57018;50.278;19.134;2023-03-16T13:43:23;8.90;47.90
69747;DHT22;57018;50.278;19.134;2023-03-16T13:45:55;8.80;48.00
69747;DHT22;57018;50.278;19.134;2023-03-16T13:48:25;8.60;47.90
69747;DHT22;57018;50.278;19.134;2023-03-16T13:50:56;8.50;48.40
69747;DHT22;57018;50.278;19.134;2023-03-16T13:53:29;8.50;48.40
69747;DHT22;57018;50.278;19.134;2023-03-16T13:56:00;8.30;48.70
69747;DHT22;57018;50.278;19.134;2023-03-16T13:58:33;7.70;49.70
69747;DHT22;57018;50.278;19.134;2023-03-16T14:01:11;7.70;50.20
69747;DHT22;57018;50.278;19.134;2023-03-16T14:03:44;7.60;50.90
69747;DHT22;57018;50.278;19.134;2023-03-16T14:06:22;7.50;50.80
69747;DHT22;57018;50.278;19.134;2023-03-16T14:08:56;7.40;50.80
69747;DHT22;57018;50.278;19.134;2023-03-16T14:11:28;7.30;51.10
69747;DHT22;57018;50.278;19.134;2023-03-16T14:13:59;7.20;51.10
69747;DHT22;57018;50.278;19.134;2023-03-16T14:16:30;7.40;51.00
69747;DHT22;57018;50.278;19.134;2023-03-16T14:19:02;7.30;51.20
69747;DHT22;57018;50.278;19.134;2023-03-16T14:21:33;7.00;50.00
69747;DHT22;57018;50.278;19.134;2023-03-16T14:24:05;7.10;50.40
69747;DHT22;57018;50.278;19.134;2023-03-16T14:26:44;6.80;51.20
69747;DHT22;57018;50.278;19.134;2023-03-16T14:29:18;7.00;51.60
69747;DHT22;57018;50.278;19.134;2023-03-16T14:31:49;6.80;51.30
69747;DHT22;57018;50.278;19.134;2023-03-16T14:34:28;6.70;50.70
69747;DHT22;57018;50.278;19.134;2023-03-16T14:37:09;6.70;50.10
69747;DHT22;57018;50.278;19.134;2023-03-16T14:39:39;6.70;47.20
69747;DHT22;57018;50.278;19.134;2023-03-16T14:42:17;6.70;47.70
69747;DHT22;57018;50.278;19.134;2023-03-16T14:44:48;6.50;47.50
69747;DHT22;57018;50.278;19.134;2023-03-16T14:47:23;6.70;47.80
69747;DHT22;57018;50.278;19.134;2023-03-16T14:49:54;6.40;47.60
69747;DHT22;57018;50.278;19.134;2023-03-16T14:52:26;6.60;48.00
69747;DHT22;57018;50.278;19.134;2023-03-16T14:54:59;6.70;48.20
69747;DHT22;57018;50.278;19.134;2023-03-16T14:57:30;6.70;49.10
69747;DHT22;57018;50.278;19.134;2023-03-16T15:00:00;6.70;48.80
69747;DHT22;57018;50.278;19.134;2023-03-16T15:02:31;6.50;47.80
69747;DHT22;57018;50.278;19.134;2023-03-16T15:05:02;6.60;46.90
69747;DHT22;57018;50.278;19.134;2023-03-16T15:07:35;6.70;45.20
69747;DHT22;57018;50.278;19.134;2023-03-16T15:10:16;6.70;45.10
69747;DHT22;57018;50.278;19.134;2023-03-16T15:12:49;6.70;44.70
69747;DHT22;57018;50.278;19.134;2023-03-16T15:15:22;6.60;45.00
69747;DHT22;57018;50.278;19.134;2023-03-16T15:17:54;6.80;44.90
69747;DHT22;57018;50.278;19.134;2023-03-16T15:20:28;6.90;43.60
69747;DHT22;57018;50.278;19.134;2023-03-16T15:23:01;7.00;43.50
69747;DHT22;57018;50.278;19.134;2023-03-16T15:25:34;6.80;44.60
69747;DHT22;57018;50.278;19.134;2023-03-16T15:28:11;6.70;45.50
69747;DHT22;57018;50.278;19.134;2023-03-16T15:30:44;6.70;46.60
69747;DHT22;57018;50.278;19.134;2023-03-16T15:33:14;6.60;47.20
69747;DHT22;57018;50.278;19.134;2023-03-16T15:35:45;6.70;47.60
69747;DHT22;57018;50.278;19.134;2023-03-16T15:38:17;6.40;48.20
69747;DHT22;57018;50.278;19.134;2023-03-16T15:40:47;6.30;48.90
69747;DHT22;57018;50.278;19.134;2023-03-16T15:43:20;6.30;49.40
69747;DHT22;57018;50.278;19.134;2023-03-16T15:45:51;6.10;49.20
69747;DHT22;57018;50.278;19.134;2023-03-16T15:48:21;6.20;49.90
69747;DHT22;57018;50.278;19.134;2023-03-16T15:50:55;6.00;50.20
69747;DHT22;57018;50.278;19.134;2023-03-16T15:53:27;5.90;50.20
69747;DHT22;57018;50.278;19.134;2023-03-16T15:56:01;5.80;50.70
69747;DHT22;57018;50.278;19.134;2023-03-16T15:58:33;6.00;50.80
69747;DHT22;57018;50.278;19.134;2023-03-16T16:01:04;6.00;50.20
69747;DHT22;57018;50.278;19.134;2023-03-16T16:03:36;5.90;50.20
69747;DHT22;57018;50.278;19.134;2023-03-16T16:06:10;5.70;50.30